Time;durP1;ratioP1;P1;durP2;ratioP2;P2;SDS_P1;SDS_P2;PMS_P1;PMS_P2;Temp;Humidity;BMP_temperature;BMP_pressure;BME280_temperature;BME280_humidity;BME280_pressure;Samples;Min_cycle;Max_cycle;Signal;HPM_P1;HPM_P2
2023/02/09 00:02:14;;;;;;;14.05;8.02;;;;;;;-0.48;100.00;102811.91;5050264;28;20397;-69
2023/02/09 00:04:39;;;;;;;17.50;7.75;;;;;;;-0.45;100.00;102808.69;5052328;28;20103;-69
2023/02/09 00:07:05;;;;;;;13.35;7.53;;;;;;;-0.49;100.00;102802.31;5051105;28;20064;-69
2023/02/09 00:09:30;;;;;;;13.70;7.75;;;;;;;-0.48;100.00;102791.22;5067505;28;20053;-69
2023/02/09 00:14:39;;;;;;;15.40;7.93;;;;;;;-0.45;100.00;102794.06;5053569;28;20048;-70
2023/02/09 00:17:06;;;;;;;15.98;7.30;;;;;;;-0.44;100.00;102795.00;5064656;28;20020;-69
2023/02/09 00:19:31;;;;;;;14.95;8.32;;;;;;;-0.41;100.00;102790.09;5061652;28;20491;-70
2023/02/09 00:21:57;;;;;;;13.38;7.40;;;;;;;-0.42;100.00;102793.47;5066938;28;20033;-69
2023/02/09 00:24:23;;;;;;;15.60;7.78;;;;;;;-0.43;100.00;102796.84;5053153;28;20490;-71
2023/02/09 00:26:48;;;;;;;16.15;7.93;;;;;;;-0.47;100.00;102794.72;5050992;28;20082;-71
2023/02/09 00:29:15;;;;;;;12.50;7.07;;;;;;;-0.44;100.00;102797.59;5051873;28;20392;-70
2023/02/09 00:31:40;;;;;;;16.40;8.23;;;;;;;-0.44;100.00;102801.06;5052616;28;20029;-69
2023/02/09 00:34:06;;;;;;;15.63;8.00;;;;;;;-0.48;100.00;102804.16;5053962;28;20059;-68
2023/02/09 00:36:32;;;;;;;21.92;8.82;;;;;;;-0.51;100.00;102804.78;5051012;28;20396;-72
2023/02/09 00:38:58;;;;;;;14.48;7.30;;;;;;;-0.55;100.00;102799.19;5050260;28;20036;-70
2023/02/09 00:44:10;;;;;;;21.23;8.13;;;;;;;-0.60;100.00;102787.50;5052602;28;20106;-68
2023/02/09 00:46:36;;;;;;;18.88;7.82;;;;;;;-0.61;100.00;102790.84;5045816;28;20021;-70
2023/02/09 00:49:03;;;;;;;16.88;8.50;;;;;;;-0.64;100.00;102787.97;5050847;28;20050;-69
2023/02/09 00:51:28;;;;;;;14.85;7.57;;;;;;;-0.66;100.00;102787.84;5059868;28;20376;-69
2023/02/09 00:53:53;;;;;;;17.63;8.73;;;;;;;-0.64;100.00;102788.88;5059694;28;20029;-69
2023/02/09 00:56:19;;;;;;;15.13;8.25;;;;;;;-0.61;100.00;102785.66;5050269;28;20021;-71
2023/02/09 00:58:44;;;;;;;20.45;8.35;;;;;;;-0.61;100.00;102785.66;5056799;28;20388;-70
2023/02/09 01:01:13;;;;;;;17.33;8.93;;;;;;;-0.64;100.00;102786.28;5056039;28;20373;-70
2023/02/09 01:03:39;;;;;;;13.98;7.70;;;;;;;-0.62;100.00;102789.94;5054100;28;20028;-70
2023/02/09 01:06:05;;;;;;;15.48;8.27;;;;;;;-0.56;100.00;102784.44;5052036;28;20472;-68
2023/02/09 01:08:31;;;;;;;13.35;8.00;;;;;;;-0.51;100.00;102788.34;5049960;28;20049;-68
2023/02/09 01:10:56;;;;;;;17.67;7.82;;;;;;;-0.46;100.00;102787.09;5052426;28;20111;-68
2023/02/09 01:13:22;;;;;;;12.38;7.55;;;;;;;-0.42;100.00;102794.38;5052445;28;20491;-70
2023/02/09 01:15:47;;;;;;;15.60;8.20;;;;;;;-0.41;100.00;102793.59;5048526;28;20186;-69
2023/02/09 01:18:12;;;;;;;15.10;7.55;;;;;;;-0.42;100.00;102784.03;5057744;28;20021;-69
2023/02/09 01:20:40;;;;;;;15.75;7.97;;;;;;;-0.44;100.00;102782.06;5051173;28;20016;-70
2023/02/09 01:23:06;;;;;;;15.20;7.72;;;;;;;-0.49;100.00;102776.47;5051190;28;20044;-69
2023/02/09 01:25:31;;;;;;;17.60;8.38;;;;;;;-0.51;100.00;102778.00;5061377;28;20033;-71
2023/02/09 01:27:56;;;;;;;15.35;8.27;;;;;;;-0.52;100.00;102782.28;5051550;28;20500;-70
2023/02/09 01:30:22;;;;;;;21.30;9.50;;;;;;;-0.54;100.00;102781.22;5050374;28;20025;-70
2023/02/09 01:32:47;;;;;;;18.92;9.38;;;;;;;-0.50;100.00;102782.44;5057448;28;20029;-69
2023/02/09 01:35:12;;;;;;;15.07;7.65;;;;;;;-0.49;100.00;102778.16;5059380;28;20082;-68
2023/02/09 01:37:38;;;;;;;16.23;8.73;;;;;;;-0.49;100.00;102781.63;5051492;28;20028;-69
2023/02/09 01:40:04;;;;;;;10.95;7.57;;;;;;;-0.48;100.00;102774.81;5051550;28;20024;-69
2023/02/09 01:42:30;;;;;;;13.70;7.68;;;;;;;-0.50;100.00;102769.50;5050431;28;20100;-69
2023/02/09 01:45:34;;;;;;;16.23;8.95;;;;;;;-0.52;100.00;102758.09;5050070;28;21202;-68
2023/02/09 01:48:02;;;;;;;21.10;7.97;;;;;;;-0.51;100.00;102752.16;5036257;28;20045;-70
2023/02/09 01:50:33;;;;;;;18.27;8.32;;;;;;;-0.48;100.00;102751.53;5055197;28;20114;-69
2023/02/09 01:52:59;;;;;;;13.73;7.63;;;;;;;-0.43;97.80;102761.53;5065144;28;20025;-68
2023/02/09 01:55:26;;;;;;;17.10;8.23;;;;;;;-0.35;97.31;102765.72;5054715;28;20029;-69
2023/02/09 01:58:07;;;;;;;17.90;8.82;;;;;;;-0.31;95.78;102760.81;5058949;28;20439;-69
2023/02/09 02:00:33;;;;;;;15.52;8.05;;;;;;;-0.24;93.74;102760.63;5054785;28;20028;-69
2023/02/09 02:03:02;;;;;;;16.13;8.40;;;;;;;-0.13;93.11;102764.19;5058613;28;20029;-69
2023/02/09 02:05:30;;;;;;;15.02;7.85;;;;;;;-0.08;92.59;102771.59;5055743;28;20468;-67
2023/02/09 02:07:59;;;;;;;13.45;7.72;;;;;;;-0.09;92.15;102767.19;5053681;28;20131;-69
2023/02/09 02:10:25;;;;;;;19.23;7.45;;;;;;;-0.07;93.11;102762.16;5048749;28;20075;-70
2023/02/09 02:12:52;;;;;;;13.40;7.43;;;;;;;-0.06;92.26;102757.09;5065271;28;20048;-69
2023/02/09 02:15:18;;;;;;;13.95;7.85;;;;;;;-0.11;95.31;102761.00;5065032;28;20579;-69
2023/02/09 02:18:10;;;;;;;15.88;7.10;;;;;;;-0.07;93.60;102750.13;5051197;28;20021;-71
2023/02/09 02:20:36;;;;;;;12.88;7.20;;;;;;;-0.11;92.44;102750.63;5055191;28;20112;-69
2023/02/09 02:23:23;;;;;;;14.27;7.53;;;;;;;-0.16;93.27;102744.13;5057011;28;20131;-70
2023/02/09 02:25:57;;;;;;;14.68;7.32;;;;;;;-0.21;95.22;102737.63;5061760;28;20033;-69
2023/02/09 02:28:28;;;;;;;15.68;7.30;;;;;;;-0.26;94.03;102734.63;5052604;28;20028;-70
2023/02/09 02:31:05;;;;;;;21.15;8.63;;;;;;;-0.27;93.90;102734.47;5055118;28;20037;-70
2023/02/09 02:33:39;;;;;;;14.00;7.80;;;;;;;-0.29;94.06;102723.97;5053492;28;20027;-70
2023/02/09 02:36:34;;;;;;;;;;;;;;;-0.31;94.49;102709.09;5055666;28;20037;-70
2023/02/09 02:39:34;;;;;;;12.80;7.28;;;;;;;-0.32;94.33;102700.44;5044442;28;19958;-70
2023/02/09 02:45:02;;;;;;;15.07;7.78;;;;;;;-0.29;94.23;102712.72;5055157;28;20094;-70
2023/02/09 02:47:32;;;;;;;14.43;7.53;;;;;;;-0.29;93.98;102710.16;5052714;28;20087;-70
2023/02/09 02:50:06;;;;;;;14.23;7.68;;;;;;;-0.28;94.45;102704.22;5054800;28;20069;-70
2023/02/09 02:52:32;;;;;;;11.50;7.28;;;;;;;-0.26;94.69;102710.41;5062179;28;20103;-68
2023/02/09 02:55:05;;;;;;;12.63;7.63;;;;;;;-0.25;95.65;102702.78;5053224;28;20104;-68
2023/02/09 02:57:33;;;;;;;17.10;8.23;;;;;;;-0.24;95.70;102701.13;5050878;28;20032;-70
2023/02/09 03:00:04;;;;;;;13.40;7.82;;;;;;;-0.22;95.61;102704.75;5059739;28;20698;-68
2023/02/09 03:02:38;;;;;;;15.98;7.82;;;;;;;-0.20;95.73;102703.22;5052677;28;20128;-69
2023/02/09 03:05:06;;;;;;;16.05;8.25;;;;;;;-0.21;95.04;102701.41;5061918;28;20027;-70
2023/02/09 03:07:31;;;;;;;15.30;8.27;;;;;;;-0.24;96.81;102699.44;5058689;28;20021;-70
2023/02/09 03:09:57;;;;;;;16.27;7.85;;;;;;;-0.28;97.34;102688.69;5054046;28;20040;-69
2023/02/09 03:12:51;;;;;;;17.80;8.65;;;;;;;-0.27;97.47;102686.25;5057126;28;20029;-69
2023/02/09 03:15:46;;;;;;;15.18;8.23;;;;;;;-0.28;97.84;102679.25;5054100;28;20029;-70
2023/02/09 03:18:15;;;;;;;20.20;9.45;;;;;;;-0.27;97.09;102674.97;5053348;28;20017;-71
2023/02/09 03:20:48;;;;;;;17.63;9.20;;;;;;;-0.27;97.65;102664.63;5053199;28;20029;-70
2023/02/09 03:23:48;;;;;;;12.80;8.25;;;;;;;-0.21;97.16;102670.34;5055628;28;20051;-69
2023/02/09 03:26:21;;;;;;;24.70;7.70;;;;;;;-0.21;97.04;102672.94;5068257;28;20025;-69
2023/02/09 03:28:51;;;;;;;14.57;7.97;;;;;;;-0.14;96.14;102659.78;5057088;28;20016;-70
2023/02/09 03:31:17;;;;;;;14.35;8.30;;;;;;;-0.02;95.22;102658.28;5051498;28;20049;-69
2023/02/09 03:33:43;;;;;;;16.55;8.48;;;;;;;0.10;93.96;102667.91;5044674;28;20430;-68
2023/02/09 03:36:15;;;;;;;13.88;7.95;;;;;;;0.25;92.92;102658.91;5053781;28;20112;-70
2023/02/09 03:38:40;;;;;;;16.20;8.48;;;;;;;0.39;92.24;102659.19;5053604;28;20021;-71
2023/02/09 03:41:06;;;;;;;14.07;7.97;;;;;;;0.44;91.88;102660.50;5050421;28;20047;-69
2023/02/09 03:46:15;;;;;;;13.32;7.60;;;;;;;0.58;91.02;102648.75;5058983;28;20120;-70
2023/02/09 03:48:40;;;;;;;17.98;8.30;;;;;;;0.57;91.86;102658.22;5058296;28;20107;-70
2023/02/09 03:51:06;;;;;;;21.38;8.23;;;;;;;0.66;90.99;102639.94;5051438;28;20032;-70
2023/02/09 03:53:37;;;;;;;14.38;7.80;;;;;;;0.61;91.15;102634.38;5053639;28;20083;-71
2023/02/09 03:56:04;;;;;;;13.82;7.85;;;;;;;0.55;91.69;102653.69;5052619;28;20048;-69
2023/02/09 03:58:30;;;;;;;15.07;7.40;;;;;;;0.61;91.27;102655.13;5055307;28;20067;-70
2023/02/09 04:01:03;;;;;;;15.77;8.30;;;;;;;0.63;91.63;102653.53;5057698;28;20442;-68
2023/02/09 04:03:28;;;;;;;15.43;8.53;;;;;;;0.69;91.78;102660.03;5069344;28;20021;-69
2023/02/09 04:05:54;;;;;;;15.57;8.32;;;;;;;0.76;90.72;102663.31;5053696;28;20324;-69
2023/02/09 04:08:19;;;;;;;18.25;9.25;;;;;;;0.70;91.16;102664.44;5052634;28;20374;-69
2023/02/09 04:10:44;;;;;;;20.92;9.05;;;;;;;0.67;91.32;102654.72;5049616;28;20032;-69
2023/02/09 04:13:10;;;;;;;12.48;8.02;;;;;;;0.52;92.87;102651.72;5052942;28;20060;-70
2023/02/09 04:15:37;;;;;;;18.58;7.93;;;;;;;0.52;93.43;102653.38;5058650;28;20029;-68
2023/02/09 04:18:03;;;;;;;17.38;7.93;;;;;;;0.53;93.16;102645.78;5062400;28;20362;-69
2023/02/09 04:20:28;;;;;;;17.05;8.88;;;;;;;0.50;92.91;102637.72;5056533;28;20028;-69
2023/02/09 04:22:53;;;;;;;15.40;8.80;;;;;;;0.54;92.96;102647.56;5058064;28;20028;-70
2023/02/09 04:25:18;;;;;;;14.88;8.20;;;;;;;0.50;92.62;102641.25;5057570;28;20040;-70
2023/02/09 04:27:44;;;;;;;15.48;8.18;;;;;;;0.49;92.41;102643.69;5054620;28;20035;-71
2023/02/09 04:30:10;;;;;;;22.73;8.82;;;;;;;0.55;91.73;102641.63;5054617;28;20031;-70
2023/02/09 04:32:35;;;;;;;16.23;7.22;;;;;;;0.50;91.52;102646.41;5053570;28;20059;-70
2023/02/09 04:35:00;;;;;;;14.13;8.05;;;;;;;0.49;91.13;102646.28;5058394;28;20029;-70
2023/02/09 04:37:26;;;;;;;19.30;8.80;;;;;;;0.61;90.78;102649.00;5051896;28;20539;-70
2023/02/09 04:39:51;;;;;;;17.80;8.25;;;;;;;0.57;90.68;102640.09;5056541;28;20028;-70
2023/02/09 04:42:16;;;;;;;14.70;7.75;;;;;;;0.49;90.60;102669.59;5055711;28;20036;-69
2023/02/09 04:44:42;;;;;;;14.13;6.90;;;;;;;0.53;90.50;102670.75;5058713;28;20032;-68
2023/02/09 04:47:07;;;;;;;11.88;7.20;;;;;;;0.49;90.47;102673.09;5055021;28;21418;-69
2023/02/09 04:49:32;;;;;;;21.55;8.50;;;;;;;0.55;90.20;102667.53;5053451;28;20130;-69
2023/02/09 04:51:58;;;;;;;14.68;7.45;;;;;;;0.44;91.21;102676.94;5055228;28;20409;-69
2023/02/09 04:54:23;;;;;;;18.20;9.13;;;;;;;0.53;90.77;102675.94;5058711;28;20118;-71
2023/02/09 04:59:33;;;;;;;19.38;8.55;;;;;;;0.44;91.53;102670.88;5055745;28;20471;-69
2023/02/09 04:59:35;;;;;;;13.90;7.40;;;;;;;0.41;91.54;102674.09;5049276;28;20037;-69
2023/02/09 05:02:00;;;;;;;13.52;7.45;;;;;;;0.43;91.84;102676.81;5048847;28;20084;-70
2023/02/09 05:04:26;;;;;;;13.00;6.93;;;;;;;0.35;91.94;102672.66;5051238;28;20024;-69
2023/02/09 05:06:51;;;;;;;15.38;8.38;;;;;;;0.32;92.10;102674.19;5052009;28;20035;-69
2023/02/09 05:09:16;;;;;;;15.77;7.47;;;;;;;0.37;91.90;102684.03;5051223;28;20052;-70
2023/02/09 05:11:42;;;;;;;15.68;8.32;;;;;;;0.35;91.96;102675.25;5071185;28;20099;-68
2023/02/09 05:14:07;;;;;;;16.65;7.70;;;;;;;0.25;92.20;102682.19;5065609;28;20019;-70
2023/02/09 05:16:32;;;;;;;13.95;7.93;;;;;;;0.31;92.36;102690.53;5051121;28;20033;-70
2023/02/09 05:18:57;;;;;;;13.25;7.68;;;;;;;0.39;92.03;102696.34;5051226;28;20495;-69
2023/02/09 05:21:23;;;;;;;13.95;7.80;;;;;;;0.30;93.08;102690.38;5049169;28;20548;-70
2023/02/09 05:23:48;;;;;;;14.77;7.50;;;;;;;0.35;92.23;102693.38;5050543;28;20530;-69
2023/02/09 05:26:13;;;;;;;15.00;7.82;;;;;;;0.30;92.85;102704.22;5045887;28;20085;-69
2023/02/09 05:28:39;;;;;;;14.68;7.85;;;;;;;0.24;93.92;102698.50;5051768;28;20072;-71
2023/02/09 05:31:04;;;;;;;19.65;7.68;;;;;;;0.23;94.90;102709.66;5051353;28;20128;-69
2023/02/09 05:33:29;;;;;;;18.10;8.30;;;;;;;0.12;96.05;102697.41;5051880;28;20040;-69
2023/02/09 05:35:55;;;;;;;15.40;7.47;;;;;;;0.12;96.60;102697.41;5051706;28;20029;-70
2023/02/09 05:38:21;;;;;;;14.18;7.35;;;;;;;0.14;96.79;102685.53;5050190;28;20033;-68
2023/02/09 05:40:46;;;;;;;14.90;8.50;;;;;;;0.11;97.38;102695.59;5050239;28;20048;-71
2023/02/09 05:43:11;;;;;;;17.60;8.60;;;;;;;0.11;97.36;102695.59;5051609;28;20033;-69
2023/02/09 05:45:37;;;;;;;20.15;7.90;;;;;;;0.09;98.04;102689.38;5051541;28;20025;-70
2023/02/09 05:48:02;;;;;;;17.38;7.32;;;;;;;-0.10;100.00;102685.16;5049982;28;20025;-69
2023/02/09 05:50:28;;;;;;;12.90;7.65;;;;;;;0.02;99.48;102694.81;5049763;28;20309;-71
2023/02/09 05:52:53;;;;;;;18.90;8.27;;;;;;;0.00;99.50;102702.44;5049892;28;20033;-70
2023/02/09 05:55:19;;;;;;;13.45;8.05;;;;;;;0.01;99.75;102704.22;5048357;28;20037;-69
2023/02/09 05:57:44;;;;;;;13.57;7.97;;;;;;;0.01;99.35;102703.31;5051628;28;20025;-70
2023/02/09 06:00:10;;;;;;;12.45;6.90;;;;;;;0.01;99.40;102705.91;5048992;28;20483;-71
2023/02/09 06:02:35;;;;;;;13.80;7.65;;;;;;;-0.02;99.38;102712.63;5048237;28;20033;-69
2023/02/09 06:05:01;;;;;;;14.90;8.00;;;;;;;-0.04;99.97;102715.84;5048977;28;20450;-69
2023/02/09 06:07:26;;;;;;;19.42;8.02;;;;;;;-0.06;100.00;102714.81;5048654;28;20021;-69
2023/02/09 06:09:51;;;;;;;11.57;7.28;;;;;;;-0.11;100.00;102714.41;5043260;28;20067;-71
2023/02/09 06:12:16;;;;;;;16.13;7.55;;;;;;;-0.09;100.00;102711.97;5046342;28;20388;-68
2023/02/09 06:14:42;;;;;;;13.90;7.47;;;;;;;-0.18;100.00;102712.00;5055395;28;20021;-69
2023/02/09 06:17:07;;;;;;;11.93;6.50;;;;;;;-0.22;100.00;102717.69;5048212;28;20179;-69
2023/02/09 06:19:32;;;;;;;14.80;7.22;;;;;;;-0.19;100.00;102724.06;5048759;28;20060;-70
2023/02/09 06:21:58;;;;;;;16.95;7.85;;;;;;;-0.14;100.00;102720.97;5059441;28;20029;-70
2023/02/09 06:24:23;;;;;;;16.52;8.82;;;;;;;-0.09;100.00;102722.31;5049595;28;20017;-71
2023/02/09 06:26:49;;;;;;;15.68;7.32;;;;;;;-0.08;99.73;102722.44;5048603;28;20044;-70
2023/02/09 06:29:14;;;;;;;13.07;6.63;;;;;;;-0.05;99.50;102725.28;5045898;28;20025;-71
2023/02/09 06:31:40;;;;;;;15.15;7.70;;;;;;;-0.06;99.69;102728.63;5043086;28;20029;-69
2023/02/09 06:34:06;;;;;;;12.95;7.65;;;;;;;-0.13;100.00;102734.03;5043686;28;20473;-70
2023/02/09 06:36:32;;;;;;;19.75;8.48;;;;;;;-0.13;100.00;102741.81;5045228;28;20028;-69
2023/02/09 06:38:57;;;;;;;14.02;7.50;;;;;;;-0.15;100.00;102745.91;5051587;28;20064;-69
2023/02/09 06:41:22;;;;;;;13.95;7.53;;;;;;;-0.24;100.00;102743.41;5053366;28;20200;-69
2023/02/09 06:43:48;;;;;;;13.73;7.47;;;;;;;-0.18;100.00;102741.41;5053309;28;20033;-68
2023/02/09 06:46:13;;;;;;;18.80;7.63;;;;;;;-0.22;100.00;102738.38;5042297;28;20017;-69
2023/02/09 06:48:39;;;;;;;15.48;7.32;;;;;;;-0.19;100.00;102733.47;5035397;28;20022;-69
2023/02/09 06:51:09;;;;;;;14.75;7.60;;;;;;;-0.13;100.00;102708.16;5046316;28;20032;-70
2023/02/09 06:53:35;;;;;;;19.70;7.72;;;;;;;-0.17;100.00;102719.00;5049615;28;20395;-70
2023/02/09 06:56:00;;;;;;;13.38;6.90;;;;;;;-0.27;100.00;102717.28;5050464;28;20366;-70
2023/02/09 06:58:29;;;;;;;14.63;7.35;;;;;;;-0.17;100.00;102714.75;5052645;28;20020;-70
2023/02/09 07:00:54;;;;;;;18.65;7.47;;;;;;;-0.13;100.00;102726.28;5052478;28;20033;-69
2023/02/09 07:03:19;;;;;;;16.83;8.30;;;;;;;-0.02;100.00;102722.97;5055379;28;20516;-70
2023/02/09 07:05:45;;;;;;;13.25;7.45;;;;;;;-0.03;100.00;102713.41;5061471;28;20503;-70
2023/02/09 07:08:10;;;;;;;14.13;7.35;;;;;;;-0.05;100.00;102719.22;5062149;28;20519;-70
2023/02/09 07:10:35;;;;;;;15.63;7.15;;;;;;;-0.05;100.00;102714.94;5048795;28;20159;-70
2023/02/09 07:13:01;;;;;;;16.85;7.95;;;;;;;0.04;100.00;102713.94;5054732;28;20033;-70
2023/02/09 07:15:26;;;;;;;15.07;7.63;;;;;;;0.10;100.00;102719.69;5052698;28;20028;-70
2023/02/09 07:17:51;;;;;;;17.63;7.22;;;;;;;0.01;100.00;102722.34;5053227;28;20017;-69
2023/02/09 07:20:17;;;;;;;17.00;7.53;;;;;;;0.05;100.00;102728.72;5053959;28;20033;-71
2023/02/09 07:22:42;;;;;;;15.35;7.22;;;;;;;-0.01;100.00;102726.50;5048887;28;20492;-70
2023/02/09 07:25:07;;;;;;;14.50;6.97;;;;;;;0.02;100.00;102733.63;5047559;28;20642;-70
2023/02/09 07:27:33;;;;;;;12.93;7.88;;;;;;;0.04;100.00;102730.41;5053321;28;20059;-72
2023/02/09 07:29:58;;;;;;;12.85;7.22;;;;;;;0.09;100.00;102735.97;5048882;28;20099;-70
2023/02/09 07:32:23;;;;;;;12.80;7.13;;;;;;;0.09;100.00;102728.22;5057004;28;20047;-70
2023/02/09 07:34:49;;;;;;;19.90;7.28;;;;;;;0.00;100.00;102733.50;5053001;28;20051;-69
2023/02/09 07:37:14;;;;;;;17.25;7.60;;;;;;;0.13;100.00;102735.47;5041769;28;20033;-70
2023/02/09 07:39:40;;;;;;;13.50;7.85;;;;;;;0.12;100.00;102744.00;5045746;28;20444;-70
2023/02/09 07:42:05;;;;;;;16.88;7.60;;;;;;;0.16;100.00;102743.50;5051272;28;20477;-70
2023/02/09 07:44:30;;;;;;;21.27;7.85;;;;;;;0.24;100.00;102739.91;5051692;28;20079;-70
2023/02/09 07:46:56;;;;;;;14.85;7.72;;;;;;;0.16;100.00;102746.09;5052575;28;20033;-69
2023/02/09 07:49:21;;;;;;;16.58;7.60;;;;;;;0.22;100.00;102745.72;5048812;28;20380;-70
2023/02/09 07:51:47;;;;;;;12.20;7.35;;;;;;;0.26;100.00;102748.75;5056400;28;20048;-71
2023/02/09 07:54:13;;;;;;;14.45;8.18;;;;;;;0.29;100.00;102750.72;5053912;28;20074;-69
2023/02/09 07:56:39;;;;;;;15.45;8.43;;;;;;;0.23;100.00;102740.72;5050754;28;20027;-69
2023/02/09 07:59:08;;;;;;;16.75;7.55;;;;;;;0.19;100.00;102725.69;5048703;28;20120;-68
2023/02/09 08:01:34;;;;;;;14.35;6.85;;;;;;;0.16;100.00;102740.91;5055042;28;20028;-70
2023/02/09 08:03:59;;;;;;;17.23;7.78;;;;;;;0.20;100.00;102747.28;5053737;28;20392;-69
2023/02/09 08:06:28;;;;;;;13.75;7.30;;;;;;;0.26;100.00;102748.75;5052647;28;20035;-70
2023/02/09 08:08:54;;;;;;;14.00;7.63;;;;;;;0.24;100.00;102750.28;5052120;28;20150;-69
2023/02/09 08:11:30;;;;;;;14.57;7.65;;;;;;;0.31;100.00;102747.50;5051923;28;20465;-70
2023/02/09 08:13:57;;;;;;;16.73;7.32;;;;;;;0.34;100.00;102744.28;5051472;28;20104;-70
2023/02/09 08:16:27;;;;;;;15.45;7.97;;;;;;;0.42;100.00;102745.84;5051133;28;20047;-69
2023/02/09 08:18:57;;;;;;;12.90;7.70;;;;;;;0.47;100.00;102743.66;5048705;28;20036;-70
2023/02/09 08:21:23;;;;;;;15.73;8.23;;;;;;;0.47;100.00;102754.91;5052998;28;20428;-70
2023/02/09 08:23:52;;;;;;;12.48;7.47;;;;;;;0.52;100.00;102744.03;5052296;28;20504;-70
2023/02/09 08:26:18;;;;;;;13.93;7.53;;;;;;;0.52;100.00;102744.97;5051316;28;20396;-69
2023/02/09 08:28:44;;;;;;;15.85;8.02;;;;;;;0.44;100.00;102753.75;5053631;28;20032;-70
2023/02/09 08:31:16;;;;;;;16.67;7.60;;;;;;;0.56;100.00;102738.38;5061546;28;20029;-71
2023/02/09 08:33:42;;;;;;;14.27;7.43;;;;;;;0.55;100.00;102733.97;5050544;28;20115;-69
2023/02/09 08:36:10;;;;;;;14.82;8.20;;;;;;;0.72;100.00;102743.19;5051706;28;20032;-70
2023/02/09 08:38:35;;;;;;;17.67;7.70;;;;;;;0.61;100.00;102740.59;5053157;28;20025;-69
2023/02/09 08:41:06;;;;;;;17.23;7.85;;;;;;;0.74;99.20;102742.56;5050685;28;20043;-71
2023/02/09 08:43:31;;;;;;;19.98;8.55;;;;;;;0.72;99.41;102738.03;5055463;28;20048;-70
2023/02/09 08:46:08;;;;;;;19.70;8.73;;;;;;;0.72;99.72;102732.84;5057049;28;20522;-69
2023/02/09 08:48:37;;;;;;;12.30;7.68;;;;;;;0.75;99.88;102734.03;5048610;28;20067;-71
2023/02/09 08:51:04;;;;;;;18.98;7.93;;;;;;;0.86;99.00;102753.09;5046769;28;20477;-72
2023/02/09 08:53:30;;;;;;;15.40;7.43;;;;;;;0.88;99.56;102754.13;5053410;28;20029;-69
2023/02/09 08:55:55;;;;;;;21.85;9.02;;;;;;;0.91;98.91;102754.41;5052808;28;20443;-70
2023/02/09 08:58:21;;;;;;;14.25;8.27;;;;;;;1.04;99.09;102753.78;5055890;28;20061;-70
2023/02/09 09:00:47;;;;;;;16.42;8.75;;;;;;;1.11;98.22;102758.72;5047530;28;20029;-69
2023/02/09 09:03:12;;;;;;;19.80;8.77;;;;;;;1.23;99.12;102750.19;5054534;28;20036;-70
2023/02/09 09:05:38;;;;;;;26.20;9.10;;;;;;;1.24;99.11;102750.31;5055433;28;20025;-70
2023/02/09 09:08:04;;;;;;;20.23;8.48;;;;;;;1.32;99.18;102749.25;5049798;28;20049;-70
2023/02/09 09:10:30;;;;;;;17.45;8.50;;;;;;;1.34;98.81;102750.31;5059816;28;20109;-70
2023/02/09 09:12:56;;;;;;;16.75;8.50;;;;;;;1.62;97.91;102749.13;5058988;28;20025;-69
2023/02/09 09:15:22;;;;;;;18.05;8.57;;;;;;;1.57;97.72;102743.53;5055925;28;20047;-70
2023/02/09 09:17:47;;;;;;;15.20;8.13;;;;;;;1.75;96.94;102740.66;5051490;28;20056;-70
2023/02/09 09:20:13;;;;;;;18.45;9.52;;;;;;;1.83;97.00;102745.72;5056637;28;20076;-69
2023/02/09 09:22:38;;;;;;;20.17;8.30;;;;;;;1.80;97.10;102749.75;5052770;28;20029;-70
2023/02/09 09:25:04;;;;;;;16.63;8.70;;;;;;;1.94;97.08;102743.09;5066612;28;20032;-70
2023/02/09 09:27:34;;;;;;;26.48;9.48;;;;;;;2.21;95.75;102765.22;5052542;28;20057;-70
2023/02/09 09:30:01;;;;;;;17.20;8.20;;;;;;;2.22;95.94;102764.44;5054249;28;20048;-70
2023/02/09 09:32:27;;;;;;;23.08;9.25;;;;;;;2.30;95.37;102771.16;5056826;28;20025;-70
2023/02/09 09:34:54;;;;;;;16.67;9.20;;;;;;;2.35;95.33;102777.66;5063853;28;20021;-69
2023/02/09 09:37:21;;;;;;;24.00;9.65;;;;;;;2.28;96.05;102790.94;5050991;28;20036;-69
2023/02/09 09:39:46;;;;;;;16.42;8.07;;;;;;;2.52;94.90;102789.44;5046766;28;20070;-70
2023/02/09 09:42:20;;;;;;;21.73;8.90;;;;;;;2.63;94.79;102786.75;5047653;28;20481;-71
2023/02/09 09:44:45;;;;;;;19.70;9.68;;;;;;;2.60;94.30;102777.03;5053243;28;20033;-69
2023/02/09 09:47:23;;;;;;;20.40;9.35;;;;;;;2.68;94.07;102783.75;5052947;28;20031;-68
2023/02/09 09:49:48;;;;;;;19.75;9.90;;;;;;;2.82;93.82;102781.34;5053706;28;20033;-69
2023/02/09 09:52:31;;;;;;;21.52;10.55;;;;;;;2.63;94.54;102777.28;5049860;28;20534;-69
2023/02/09 09:54:57;;;;;;;21.23;9.70;;;;;;;2.87;94.10;102783.50;5048019;28;20064;-69
2023/02/09 09:57:30;;;;;;;19.88;9.02;;;;;;;2.83;93.90;102777.97;5051405;28;20017;-73
2023/02/09 09:59:56;;;;;;;20.88;10.18;;;;;;;2.93;94.68;102784.78;5056168;28;20605;-72
2023/02/09 10:02:30;;;;;;;20.10;9.38;;;;;;;2.78;96.50;102781.88;5052033;28;20489;-72
2023/02/09 10:05:15;;;;;;;17.75;9.45;;;;;;;2.74;97.74;102795.41;5052342;28;20149;-73
2023/02/09 10:07:47;;;;;;;16.90;8.60;;;;;;;2.73;98.42;102791.00;5068371;28;20070;-73
2023/02/09 10:10:39;;;;;;;19.77;9.70;;;;;;;2.92;98.15;102788.19;5063228;28;20124;-72
2023/02/09 10:13:20;;;;;;;20.88;9.43;;;;;;;3.03;98.64;102803.84;5030326;28;20052;-73
2023/02/09 10:15:47;;;;;;;17.77;9.27;;;;;;;3.22;97.50;102794.88;5053964;28;20029;-72
2023/02/09 10:18:16;;;;;;;17.23;9.63;;;;;;;2.95;99.66;102802.34;5060573;28;20028;-73
2023/02/09 10:21:00;;;;;;;20.63;10.02;;;;;;;3.18;99.71;102811.06;5052207;28;20141;-73
2023/02/09 10:23:42;;;;;;;;;;;;;;;3.06;100.00;102804.88;5053762;28;20041;-72
2023/02/09 10:26:07;;;;;;;15.40;8.90;;;;;;;3.00;100.00;102800.13;5066057;28;19924;-73
2023/02/09 10:28:38;;;;;;;16.92;9.55;;;;;;;3.26;100.00;102809.94;5068393;28;20021;-72
2023/02/09 10:31:10;;;;;;;22.88;9.55;;;;;;;3.10;100.00;102805.22;5054004;28;20114;-72
2023/02/09 10:33:41;;;;;;;19.50;9.95;;;;;;;3.10;100.00;102802.63;5057571;28;20043;-73
2023/02/09 10:36:21;;;;;;;19.85;10.77;;;;;;;3.29;100.00;102809.28;5059366;28;20025;-72
2023/02/09 10:38:46;;;;;;;18.77;10.88;;;;;;;3.58;100.00;102810.63;5048852;28;20472;-72
2023/02/09 10:41:13;;;;;;;19.20;10.30;;;;;;;3.76;99.59;102809.44;5056780;28;20031;-72
2023/02/09 10:43:38;;;;;;;20.90;10.88;;;;;;;3.93;98.68;102810.69;5050988;28;20166;-73
2023/02/09 10:46:19;;;;;;;20.88;11.00;;;;;;;4.10;97.05;102814.59;5071223;28;20115;-73
2023/02/09 10:48:46;;;;;;;20.17;11.30;;;;;;;4.41;96.09;102823.75;5065686;28;20016;-73
2023/02/09 10:51:30;;;;;;;21.92;10.32;;;;;;;4.76;95.56;102823.75;5062197;28;20123;-73
2023/02/09 10:53:55;;;;;;;;;;;;;;;4.76;93.54;102822.81;5057338;28;20115;-73
2023/02/09 10:56:40;;;;;;;27.17;10.90;;;;;;;4.62;95.40;102825.34;5073235;28;20428;-73
2023/02/09 10:59:20;;;;;;;19.40;11.75;;;;;;;5.04;95.40;102830.94;5059945;28;20327;-73
2023/02/09 11:01:55;;;;;;;19.83;11.60;;;;;;;5.50;93.06;102822.81;5036846;28;20033;-73
2023/02/09 11:04:23;;;;;;;21.00;11.10;;;;;;;5.67;90.04;102817.06;5069138;28;20033;-73
2023/02/09 11:06:54;;;;;;;18.05;11.05;;;;;;;5.73;89.48;102830.50;5056762;28;20483;-73
2023/02/09 11:09:25;;;;;;;21.65;11.75;;;;;;;5.65;90.91;102834.31;5058781;28;20409;-73
2023/02/09 11:11:51;;;;;;;19.17;11.32;;;;;;;5.63;91.35;102825.47;5058312;28;20028;-73
2023/02/09 11:14:19;;;;;;;19.52;11.15;;;;;;;5.47;93.33;102838.28;5062855;28;20033;-73
2023/02/09 11:17:12;;;;;;;21.58;12.13;;;;;;;5.50;94.26;102835.88;5063598;28;20492;-73
2023/02/09 11:19:49;;;;;;;18.95;11.73;;;;;;;5.45;95.12;102830.31;5071317;28;20082;-74
2023/02/09 11:22:51;;;;;;;19.88;12.20;;;;;;;5.49;96.40;102823.59;5071383;28;20476;-73
2023/02/09 11:25:31;;;;;;;21.25;11.60;;;;;;;5.49;97.37;102823.59;5063398;28;20028;-72
2023/02/09 11:28:34;;;;;;;20.42;12.02;;;;;;;5.76;96.83;102822.00;5051049;28;20094;-72
2023/02/09 11:31:24;;;;;;;25.38;12.45;;;;;;;5.97;94.60;102833.00;5063116;28;20091;-73
2023/02/09 11:34:09;;;;;;;25.60;12.73;;;;;;;6.21;93.75;102828.56;5060068;28;21155;-73
2023/02/09 11:37:07;;;;;;;23.27;12.90;;;;;;;6.58;92.03;102828.34;5060794;28;20039;-73
2023/02/09 11:39:43;;;;;;;25.90;12.85;;;;;;;6.80;88.50;102827.09;5012070;28;20546;-73